Terminal Aerodrome Forecast
Issued by NWS

Home | Current Version | Previous Version | Text Only | Print | Product List | Glossary On
Versions: 1 2 3 4 5 6 7 8 9 10 11 12 13 14 15 16 17 18 19 20 21 22 23 24
000
FTUS43 KIND 200700 AAB
TAFBMG
TAF AMD
KBMG 200708Z 2007/2106 VRB04KT 6SM BR SCT250
     FM200900 27002KT 2SM BR SCT250
      TEMPO 2010/2013 1/2SM FG VV002
     FM201500 26008KT P6SM SCT060
     FM210300 22002KT 5SM BR SCT150
      AMD LTD TO CLD VIS AND WIND TIL 201300=

USA.gov is the U.S. government's official web portal to all federal, state and local government web resources and services.